createdAt,value
2018-12-13T05:00:30.459Z,95.10
2018-12-13T05:02:58.521Z,94.90
2018-12-13T05:05:26.715Z,95.00
2018-12-13T05:07:55.117Z,95.20
2018-12-13T05:10:35.609Z,95.40
2018-12-13T05:13:03.662Z,95.50
2018-12-13T05:15:31.766Z,95.80
2018-12-13T05:17:59.843Z,96.00
2018-12-13T05:20:27.916Z,96.40
2018-12-13T05:22:56.231Z,95.60
2018-12-13T05:25:25.419Z,95.80
2018-12-13T05:27:53.521Z,95.70
2018-12-13T05:30:21.616Z,95.80
2018-12-13T05:32:49.755Z,96.30
2018-12-13T05:35:17.923Z,96.10
2018-12-13T05:37:58.529Z,96.30
2018-12-13T05:40:26.783Z,96.80
2018-12-13T05:42:55.018Z,96.70
2018-12-13T05:45:23.529Z,96.90
2018-12-13T05:47:51.575Z,96.90
2018-12-13T05:50:19.651Z,97.10
2018-12-13T05:52:47.727Z,97.50
2018-12-13T05:55:16.596Z,97.90
2018-12-13T05:57:44.708Z,97.80
2018-12-13T06:00:12.820Z,98.20
2018-12-13T06:02:40.917Z,98.00
2018-12-13T06:05:08.991Z,97.80
2018-12-13T06:07:37.111Z,98.10
2018-12-13T06:10:05.535Z,98.30
2018-12-13T06:12:33.636Z,98.30
2018-12-13T06:15:03.309Z,98.00
2018-12-13T06:17:31.567Z,98.00
2018-12-13T06:19:59.651Z,97.90
2018-12-13T06:22:27.726Z,98.30
2018-12-13T06:24:56.011Z,98.60
2018-12-13T06:27:24.304Z,98.60
2018-12-13T06:29:58.691Z,98.50
2018-12-13T06:32:22.439Z,98.60
2018-12-13T06:34:50.528Z,98.40
2018-12-13T06:37:19.302Z,98.40
2018-12-13T06:39:47.443Z,97.90
2018-12-13T06:42:15.544Z,97.80
2018-12-13T06:44:44.364Z,97.50
2018-12-13T06:47:12.427Z,98.40
2018-12-13T06:49:40.518Z,98.50
2018-12-13T06:52:08.608Z,98.30
2018-12-13T06:54:37.408Z,97.90
2018-12-13T06:57:06.841Z,97.50
2018-12-13T06:59:37.729Z,96.80
2018-12-13T07:02:06.367Z,96.60
2018-12-13T07:04:57.419Z,96.30
2018-12-13T07:07:25.725Z,96.50
2018-12-13T07:09:53.839Z,96.60
2018-12-13T07:12:22.038Z,96.40
2018-12-13T07:14:50.215Z,96.60
2018-12-13T07:17:18.375Z,96.50
2018-12-13T07:19:46.548Z,96.00
2018-12-13T07:22:15.858Z,96.10
2018-12-13T07:24:44.382Z,95.70
2018-12-13T07:27:16.126Z,95.80
2018-12-13T07:29:44.547Z,95.60
2018-12-13T07:32:13.323Z,95.50
2018-12-13T07:34:41.406Z,94.90
2018-12-13T07:37:20.547Z,94.50
2018-12-13T07:39:48.684Z,94.30
2018-12-13T07:42:16.960Z,94.10
2018-12-13T08:04:57.308Z,92.70
2018-12-13T08:24:47.379Z,85.60
2018-12-13T08:47:32.944Z,79.90
2018-12-13T08:50:01.641Z,80.00
2018-12-13T09:09:14.576Z,78.60
2018-12-13T09:11:42.659Z,76.80
2018-12-13T09:34:24.647Z,71.00
2018-12-13T09:36:52.743Z,71.30
2018-12-13T09:39:20.815Z,70.50
2018-12-13T09:41:48.930Z,70.50
2018-12-13T09:44:17.520Z,70.80
2018-12-13T10:04:05.156Z,68.20
2018-12-13T10:44:06.228Z,63.40
2018-12-13T10:46:35.560Z,64.70
2018-12-13T10:49:03.627Z,61.60
2018-12-13T10:51:31.700Z,59.30
2018-12-13T11:11:18.664Z,67.60
2018-12-13T12:11:44.414Z,74.60
2018-12-13T12:34:25.891Z,73.90
2018-12-13T12:36:53.964Z,73.50
2018-12-13T12:56:41.470Z,72.60
2018-12-13T12:59:09.563Z,71.60
2018-12-13T13:18:56.916Z,65.90
2018-12-13T13:38:44.475Z,62.10
2018-12-13T13:58:31.931Z,56.70
2018-12-13T14:01:00.134Z,60.00
2018-12-13T14:20:47.499Z,69.20
2018-12-13T14:40:36.263Z,73.20
2018-12-13T14:43:04.364Z,73.10
2018-12-13T14:45:32.444Z,72.00
2018-12-13T15:08:22.495Z,70.70
2018-12-13T15:28:09.903Z,73.60
2018-12-13T15:30:37.987Z,72.90
2018-12-13T15:33:06.071Z,73.80
2018-12-13T15:52:54.524Z,74.30
2018-12-13T16:15:42.578Z,73.80
2018-12-13T16:38:25.146Z,73.50
2018-12-13T17:18:26.976Z,74.10
2018-12-13T17:38:14.895Z,74.50
2018-12-13T18:18:22.078Z,75.60
2018-12-13T18:38:13.989Z,76.40
2018-12-13T18:58:05.570Z,75.90
2018-12-13T19:17:52.677Z,73.70
2018-12-13T19:20:20.763Z,73.50
2018-12-13T19:43:01.999Z,72.50
2018-12-13T20:02:50.106Z,74.70
2018-12-13T20:05:18.296Z,75.10
2018-12-13T20:07:46.423Z,75.60
2018-12-13T20:10:14.579Z,75.60
2018-12-13T20:12:42.854Z,76.00
2018-12-13T20:32:29.975Z,77.50
2018-12-13T20:34:58.359Z,76.10
2018-12-13T20:37:26.476Z,76.50
2018-12-13T20:39:55.235Z,76.90
2018-12-13T20:42:23.317Z,76.50
2018-12-13T20:44:51.465Z,76.20
2018-12-13T20:47:19.586Z,76.50
2018-12-13T20:49:47.752Z,76.80
2018-12-13T20:52:16.479Z,77.50
2018-12-13T20:54:44.688Z,76.80
2018-12-13T21:14:31.892Z,76.70
2018-12-13T21:17:00.253Z,77.20
2018-12-13T21:36:47.707Z,76.50
2018-12-13T21:39:17.023Z,77.20
2018-12-13T21:41:45.328Z,76.40
2018-12-13T21:44:13.664Z,76.80
2018-12-13T21:46:42.633Z,76.50
2018-12-13T21:49:10.794Z,76.40
2018-12-13T21:51:38.949Z,76.60
2018-12-13T21:54:10.965Z,76.20
2018-12-13T21:56:41.064Z,76.10
2018-12-13T21:59:09.314Z,76.40
2018-12-13T22:01:37.572Z,76.60
2018-12-13T22:04:05.892Z,76.70
2018-12-13T22:06:34.291Z,76.20
2018-12-13T22:29:15.755Z,76.00
2018-12-13T22:31:44.259Z,75.80
2018-12-13T22:34:13.307Z,75.10
2018-12-13T22:36:42.003Z,76.30
2018-12-13T22:39:10.150Z,75.90
2018-12-13T22:41:38.312Z,75.10
2018-12-13T22:44:06.880Z,77.80
2018-12-13T22:46:35.670Z,76.20
2018-12-13T22:49:03.868Z,75.60
2018-12-13T22:51:31.983Z,75.10
2018-12-13T22:54:00.125Z,75.00
2018-12-13T22:56:29.487Z,75.20
2018-12-13T22:58:57.615Z,75.60
2018-12-13T23:01:25.824Z,75.50
2018-12-13T23:03:53.985Z,75.60
2018-12-13T23:06:22.115Z,75.70
2018-12-13T23:08:50.179Z,75.80
2018-12-13T23:11:18.384Z,76.10
2018-12-13T23:13:53.315Z,75.90
2018-12-13T23:16:21.712Z,75.80
2018-12-13T23:18:51.425Z,76.40
2018-12-13T23:21:19.814Z,76.70
2018-12-13T23:23:50.595Z,76.50
2018-12-13T23:26:21.142Z,76.30
2018-12-13T23:31:33.200Z,76.70
2018-12-13T23:34:05.007Z,76.30
2018-12-13T23:36:36.219Z,76.20
2018-12-13T23:39:06.343Z,76.00
2018-12-13T23:41:39.230Z,76.30
2018-12-13T23:44:05.105Z,76.50
2018-12-13T23:46:33.283Z,77.30
2018-12-13T23:51:43.441Z,77.70
2018-12-13T23:54:12.115Z,77.60
2018-12-13T23:56:40.722Z,77.30
2018-12-13T23:59:08.832Z,77.40
